Time;durP1;ratioP1;P1;durP2;ratioP2;P2;SDS_P1;SDS_P2;PMS_P1;PMS_P2;Temp;Humidity;BMP_temperature;BMP_pressure;BME280_temperature;BME280_humidity;BME280_pressure;Samples;Min_cycle;Max_cycle;Signal;HPM_P1;HPM_P2
2021/03/13 00:01:34;;;;;;;0.70;0.10;;;6.30;99.90;;;;;;5030514;28;20921;-71
2021/03/13 00:04:01;;;;;;;0.50;0.20;;;6.30;99.90;;;;;;5030548;28;20438;-72
2021/03/13 00:06:27;;;;;;;0.60;0.10;;;6.20;99.90;;;;;;5030784;28;20572;-72
2021/03/13 00:08:54;;;;;;;0.70;0.30;;;6.00;99.90;;;;;;5030015;28;20445;-72
2021/03/13 00:11:22;;;;;;;0.40;0.20;;;5.90;99.90;;;;;;5030855;28;20712;-71
2021/03/13 00:13:48;;;;;;;0.30;0.10;;;6.00;99.90;;;;;;5030324;28;20846;-71
2021/03/13 00:16:14;;;;;;;0.40;0.20;;;6.00;99.90;;;;;;5031701;28;20434;-72
2021/03/13 00:18:41;;;;;;;0.30;0.10;;;6.00;99.90;;;;;;5033978;28;20461;-71
2021/03/13 00:21:07;;;;;;;0.50;0.20;;;6.10;99.90;;;;;;5034924;28;20430;-71
2021/03/13 00:23:34;;;;;;;0.30;0.10;;;6.10;99.90;;;;;;5034326;28;20746;-72
2021/03/13 00:26:01;;;;;;;0.40;0.20;;;6.10;99.90;;;;;;5034267;28;20438;-72
2021/03/13 00:28:29;;;;;;;0.77;0.20;;;6.20;99.90;;;;;;5034162;28;20529;-72
2021/03/13 00:30:55;;;;;;;0.50;0.20;;;6.30;99.90;;;;;;5034265;28;20415;-72
2021/03/13 00:33:25;;;;;;;0.32;0.10;;;6.20;99.90;;;;;;5033731;28;20442;-72
2021/03/13 00:35:52;;;;;;;0.70;0.20;;;6.10;99.90;;;;;;5034479;28;20488;-72
2021/03/13 00:38:20;;;;;;;1.10;0.10;;;6.10;99.90;;;;;;5034065;28;20913;-71
2021/03/13 00:40:47;;;;;;;0.30;0.10;;;6.10;99.90;;;;;;5033689;28;20439;-72
2021/03/13 00:43:15;;;;;;;0.60;0.20;;;6.10;99.90;;;;;;5033983;28;20435;-72
2021/03/13 00:45:44;;;;;;;0.50;0.20;;;6.00;99.90;;;;;;5033859;28;20477;-72
2021/03/13 00:48:12;;;;;;;0.30;0.10;;;5.90;99.90;;;;;;5033707;28;20430;-72
2021/03/13 00:50:42;;;;;;;0.35;0.20;;;5.80;99.90;;;;;;5034282;28;20419;-73
2021/03/13 00:53:10;;;;;;;0.70;0.20;;;6.00;99.90;;;;;;5034102;28;20778;-72
2021/03/13 00:55:37;;;;;;;0.40;0.10;;;6.10;99.90;;;;;;5034045;28;20419;-72
2021/03/13 00:58:04;;;;;;;0.40;0.10;;;6.20;99.90;;;;;;5034175;28;20481;-72
2021/03/13 01:00:31;;;;;;;0.40;0.10;;;6.30;99.90;;;;;;5035080;28;20439;-72
2021/03/13 01:02:58;;;;;;;0.37;0.10;;;6.30;99.90;;;;;;5036937;28;20435;-72
2021/03/13 01:05:25;;;;;;;1.80;0.10;;;6.40;99.90;;;;;;5037679;28;20434;-72
2021/03/13 01:07:52;;;;;;;0.30;0.10;;;6.40;99.90;;;;;;5037366;28;20442;-72
2021/03/13 01:10:23;;;;;;;0.30;0.10;;;6.40;99.90;;;;;;5037400;28;20422;-72
2021/03/13 01:12:49;;;;;;;0.30;0.10;;;6.40;99.90;;;;;;5037449;28;20438;-72
2021/03/13 01:15:18;;;;;;;0.60;0.10;;;6.40;99.90;;;;;;5037153;28;20419;-72
2021/03/13 01:17:45;;;;;;;0.40;0.10;;;6.20;99.90;;;;;;5037153;28;20454;-72
2021/03/13 01:20:15;;;;;;;0.60;0.10;;;6.10;99.90;;;;;;5037781;28;20804;-73
2021/03/13 01:22:43;;;;;;;0.30;0.10;;;6.00;99.90;;;;;;5036828;28;20492;-72
2021/03/13 01:25:10;;;;;;;0.30;0.10;;;5.80;99.90;;;;;;5035864;28;20446;-72
2021/03/13 01:27:38;;;;;;;0.30;0.10;;;5.80;99.90;;;;;;5036543;28;20441;-73
2021/03/13 01:30:06;;;;;;;0.30;0.10;;;5.80;99.90;;;;;;5036893;28;20419;-73
2021/03/13 01:32:33;;;;;;;0.30;0.10;;;5.70;99.90;;;;;;5036460;28;20435;-71
2021/03/13 01:34:59;;;;;;;0.30;0.10;;;5.60;99.90;;;;;;5037267;28;20427;-73
2021/03/13 01:37:27;;;;;;;0.30;0.10;;;5.70;99.90;;;;;;5038322;28;20873;-73
2021/03/13 01:39:53;;;;;;;0.30;0.10;;;5.70;99.90;;;;;;5037688;28;20526;-73
2021/03/13 01:42:20;;;;;;;0.30;0.10;;;5.60;99.90;;;;;;5037512;28;20427;-73
2021/03/13 01:44:47;;;;;;;0.30;0.10;;;5.60;99.90;;;;;;5038190;28;20485;-73
2021/03/13 01:47:20;;;;;;;0.40;0.10;;;5.50;99.90;;;;;;5037278;28;20838;-73
2021/03/13 01:49:48;;;;;;;0.30;0.10;;;5.40;99.90;;;;;;5037472;28;20724;-73
2021/03/13 01:52:14;;;;;;;0.40;0.10;;;5.40;99.90;;;;;;5036892;28;20600;-73
2021/03/13 01:54:42;;;;;;;0.40;0.20;;;5.40;99.90;;;;;;5036625;28;20423;-72
2021/03/13 01:57:09;;;;;;;0.30;0.10;;;5.50;99.90;;;;;;5036677;28;20734;-72
2021/03/13 01:59:35;;;;;;;0.30;0.10;;;5.40;99.90;;;;;;5036597;28;20435;-72
2021/03/13 02:02:06;;;;;;;0.30;0.10;;;5.40;99.90;;;;;;5035133;28;20442;-72
2021/03/13 02:04:33;;;;;;;0.40;0.10;;;5.30;99.90;;;;;;5034897;28;20430;-72
2021/03/13 02:07:05;;;;;;;0.30;0.10;;;5.30;99.90;;;;;;5034305;28;20438;-72
2021/03/13 02:09:38;;;;;;;0.60;0.10;;;5.30;99.90;;;;;;5034504;28;20419;-72
2021/03/13 02:12:19;;;;;;;0.40;0.10;;;5.30;99.90;;;;;;5033434;28;20435;-73
2021/03/13 02:14:53;;;;;;;0.40;0.10;;;5.30;99.90;;;;;;5034331;28;20838;-72
2021/03/13 02:17:27;;;;;;;0.40;0.13;;;5.20;99.90;;;;;;5033854;28;20431;-72
2021/03/13 02:20:35;;;;;;;0.50;0.20;;;5.30;99.90;;;;;;5034878;28;20442;-71
2021/03/13 02:23:03;;;;;;;0.30;0.20;;;5.30;99.90;;;;;;5035844;28;20427;-73
2021/03/13 02:25:40;;;;;;;0.30;0.20;;;5.30;99.90;;;;;;5036296;28;20897;-72
2021/03/13 02:28:16;;;;;;;0.35;0.13;;;5.30;99.90;;;;;;5036356;28;20508;-71
2021/03/13 02:30:45;;;;;;;0.40;0.20;;;5.30;99.90;;;;;;5036378;28;20423;-72
2021/03/13 02:33:19;;;;;;;0.65;0.20;;;5.30;99.90;;;;;;5036394;28;20454;-73
2021/03/13 02:35:50;;;;;;;0.50;0.20;;;5.30;99.90;;;;;;5036469;28;20738;-72
2021/03/13 02:38:21;;;;;;;0.50;0.20;;;5.40;99.90;;;;;;5035772;28;20727;-73
2021/03/13 02:40:49;;;;;;;1.40;0.20;;;5.40;99.90;;;;;;5036733;28;20738;-73
2021/03/13 02:43:20;;;;;;;0.30;0.20;;;5.40;99.90;;;;;;5035754;28;20484;-71
2021/03/13 02:45:53;;;;;;;0.50;0.20;;;5.50;99.90;;;;;;5036559;28;20427;-72
2021/03/13 02:48:21;;;;;;;0.40;0.20;;;5.60;99.90;;;;;;5035826;28;20435;-71
2021/03/13 02:50:49;;;;;;;0.50;0.20;;;5.50;99.90;;;;;;5036164;28;20415;-72
2021/03/13 02:53:17;;;;;;;0.40;0.13;;;5.50;99.90;;;;;;5036167;28;20944;-72
2021/03/13 02:55:44;;;;;;;0.50;0.20;;;5.60;99.90;;;;;;5036204;28;20419;-72
2021/03/13 02:58:14;;;;;;;0.40;0.20;;;5.60;99.90;;;;;;5035576;28;20466;-72
2021/03/13 03:00:42;;;;;;;0.80;0.20;;;5.70;99.90;;;;;;5035339;28;20431;-72
2021/03/13 03:03:11;;;;;;;0.57;0.20;;;5.70;99.90;;;;;;5035667;28;20435;-72
2021/03/13 03:05:38;;;;;;;0.97;0.13;;;5.70;99.90;;;;;;5035918;28;20905;-72
2021/03/13 03:08:08;;;;;;;0.57;0.20;;;5.70;99.90;;;;;;5035505;28;20431;-72
2021/03/13 03:10:39;;;;;;;0.80;0.20;;;5.70;99.90;;;;;;5035233;28;20423;-72
2021/03/13 03:13:07;;;;;;;1.30;0.20;;;5.90;99.90;;;;;;5034809;28;20431;-72
2021/03/13 03:15:35;;;;;;;0.40;0.10;;;6.00;99.90;;;;;;5035331;28;20438;-72
2021/03/13 03:18:05;;;;;;;0.40;0.20;;;6.00;99.90;;;;;;5035167;28;20434;-73
2021/03/13 03:20:34;;;;;;;0.57;0.20;;;6.10;99.90;;;;;;5034028;28;20442;-72
2021/03/13 03:23:05;;;;;;;0.40;0.20;;;6.10;99.90;;;;;;5033777;28;20427;-74
2021/03/13 03:25:32;;;;;;;0.43;0.20;;;6.20;99.90;;;;;;5034414;28;20438;-73
2021/03/13 03:27:59;;;;;;;0.80;0.20;;;6.20;99.90;;;;;;5033385;28;20434;-73
2021/03/13 03:30:27;;;;;;;0.55;0.20;;;6.20;99.90;;;;;;5033909;28;20866;-73
2021/03/13 03:32:54;;;;;;;1.00;0.30;;;6.20;99.90;;;;;;5033884;28;20488;-72
2021/03/13 03:35:22;;;;;;;1.20;0.30;;;6.20;99.90;;;;;;5034388;28;20496;-73
2021/03/13 03:37:52;;;;;;;0.40;0.10;;;6.30;99.90;;;;;;5035340;28;20739;-73
2021/03/13 03:40:19;;;;;;;1.20;0.20;;;6.40;99.90;;;;;;5035101;28;20958;-73
2021/03/13 03:42:53;;;;;;;0.70;0.20;;;6.30;99.90;;;;;;5035419;28;20426;-73
2021/03/13 03:45:23;;;;;;;1.08;0.20;;;6.30;99.90;;;;;;5035101;28;20430;-73
2021/03/13 03:47:50;;;;;;;2.20;0.20;;;6.30;99.90;;;;;;5035418;28;20431;-72
2021/03/13 03:50:18;;;;;;;0.80;0.20;;;6.30;99.90;;;;;;5034368;28;20415;-72
2021/03/13 03:52:50;;;;;;;0.50;0.20;;;6.40;99.90;;;;;;5033985;28;20884;-73
2021/03/13 03:55:17;;;;;;;1.20;0.20;;;6.40;99.90;;;;;;5034301;28;20738;-72
2021/03/13 03:57:45;;;;;;;0.50;0.20;;;6.50;99.90;;;;;;5034130;28;20431;-72
2021/03/13 04:00:13;;;;;;;0.50;0.20;;;6.40;99.90;;;;;;5033650;28;20858;-72
2021/03/13 04:02:40;;;;;;;1.00;0.20;;;6.50;99.90;;;;;;5033392;28;20492;-72
2021/03/13 04:05:11;;;;;;;0.80;0.20;;;6.50;99.90;;;;;;5033424;28;20900;-72
2021/03/13 04:07:38;;;;;;;1.00;0.30;;;6.40;99.90;;;;;;5033947;28;20734;-72
2021/03/13 04:10:08;;;;;;;0.57;0.20;;;6.40;99.90;;;;;;5033794;28;20730;-72
2021/03/13 04:12:38;;;;;;;0.63;0.20;;;6.40;99.90;;;;;;5033896;28;20703;-73
2021/03/13 04:15:06;;;;;;;1.20;0.20;;;6.40;99.90;;;;;;5034819;28;20423;-74
2021/03/13 04:17:34;;;;;;;0.50;0.20;;;6.50;99.90;;;;;;5034546;28;20777;-73
2021/03/13 04:20:02;;;;;;;0.40;0.20;;;6.50;99.90;;;;;;5034561;28;20439;-73
2021/03/13 04:22:29;;;;;;;0.40;0.20;;;6.50;99.90;;;;;;5034730;28;20849;-74
2021/03/13 04:24:57;;;;;;;0.80;0.20;;;6.60;99.90;;;;;;5034672;28;20430;-73
2021/03/13 04:27:25;;;;;;;0.63;0.30;;;6.70;99.90;;;;;;5034273;28;20426;-73
2021/03/13 04:29:51;;;;;;;0.80;0.20;;;6.80;99.90;;;;;;5033812;28;20419;-72
2021/03/13 04:32:19;;;;;;;0.30;0.10;;;6.80;99.90;;;;;;5033848;28;20431;-73
2021/03/13 04:34:48;;;;;;;1.67;0.20;;;6.80;99.90;;;;;;5033357;28;20418;-73
2021/03/13 04:37:15;;;;;;;0.95;0.17;;;6.80;99.90;;;;;;5036421;28;20849;-73
2021/03/13 04:39:43;;;;;;;1.50;0.20;;;6.90;99.90;;;;;;5036663;28;20430;-72
2021/03/13 04:42:10;;;;;;;0.80;0.20;;;6.80;99.90;;;;;;5037385;28;20481;-72
2021/03/13 04:44:38;;;;;;;0.45;0.20;;;7.00;99.90;;;;;;5037762;28;20419;-73
2021/03/13 04:47:05;;;;;;;1.30;0.20;;;7.00;99.90;;;;;;5037655;28;20462;-73
2021/03/13 04:49:32;;;;;;;0.30;0.10;;;7.00;99.90;;;;;;5038040;28;20848;-73
2021/03/13 04:52:00;;;;;;;0.40;0.10;;;7.00;99.90;;;;;;5038077;28;20434;-73
2021/03/13 04:54:27;;;;;;;1.10;0.20;;;7.00;99.90;;;;;;5038264;28;20441;-73
2021/03/13 04:56:53;;;;;;;0.50;0.20;;;7.00;99.90;;;;;;5037581;28;20423;-72
2021/03/13 04:59:20;;;;;;;0.40;0.15;;;7.00;99.90;;;;;;5038404;28;20433;-74
2021/03/13 05:01:49;;;;;;;0.30;0.10;;;6.90;99.90;;;;;;5036075;28;20422;-74
2021/03/13 05:04:16;;;;;;;0.40;0.20;;;6.90;99.90;;;;;;5038394;28;20727;-73
2021/03/13 05:06:42;;;;;;;0.43;0.20;;;6.90;99.90;;;;;;5037671;28;20415;-73
2021/03/13 05:09:09;;;;;;;0.55;0.20;;;6.90;99.90;;;;;;5037849;28;20461;-73
2021/03/13 05:11:35;;;;;;;0.60;0.13;;;7.00;99.90;;;;;;5037448;28;20434;-74
2021/03/13 05:14:02;;;;;;;1.23;0.15;;;7.00;99.90;;;;;;5037707;28;20422;-71
2021/03/13 05:16:29;;;;;;;0.40;0.10;;;7.10;99.90;;;;;;5037380;28;20465;-72
2021/03/13 05:18:57;;;;;;;0.40;0.10;;;7.10;99.90;;;;;;5037885;28;20762;-72
2021/03/13 05:21:24;;;;;;;0.50;0.10;;;7.20;99.90;;;;;;5037454;28;20457;-72
2021/03/13 05:23:50;;;;;;;0.40;0.10;;;7.20;99.90;;;;;;5037986;28;20750;-73
2021/03/13 05:26:17;;;;;;;0.40;0.10;;;7.30;99.90;;;;;;5037955;28;20700;-72
2021/03/13 05:28:44;;;;;;;0.40;0.10;;;7.40;99.90;;;;;;5037601;28;20442;-73
2021/03/13 05:31:10;;;;;;;0.40;0.10;;;7.40;99.90;;;;;;5037358;28;20423;-73
2021/03/13 05:33:37;;;;;;;0.60;0.17;;;7.40;99.90;;;;;;5037330;28;20435;-73
2021/03/13 05:36:05;;;;;;;0.40;0.10;;;7.40;99.90;;;;;;5036594;28;20450;-73
2021/03/13 05:38:32;;;;;;;0.30;0.10;;;7.50;99.90;;;;;;5035835;28;20734;-72
2021/03/13 05:40:59;;;;;;;0.90;0.20;;;7.60;99.90;;;;;;5035604;28;20493;-72
2021/03/13 05:43:26;;;;;;;0.30;0.10;;;7.60;99.90;;;;;;5035662;28;20434;-73
2021/03/13 05:45:53;;;;;;;0.70;0.10;;;7.60;99.90;;;;;;5035810;28;20801;-72
2021/03/13 05:48:24;;;;;;;0.30;0.10;;;7.60;99.90;;;;;;5035308;28;20442;-73
2021/03/13 05:50:51;;;;;;;0.40;0.10;;;7.60;99.90;;;;;;5035844;28;20427;-73
2021/03/13 05:53:19;;;;;;;0.30;0.10;;;7.70;99.90;;;;;;5036606;28;20440;-72
2021/03/13 05:55:46;;;;;;;0.30;0.10;;;7.80;99.90;;;;;;5037350;28;20423;-72
2021/03/13 05:58:13;;;;;;;0.30;0.10;;;7.80;99.90;;;;;;5036515;28;20841;-73
2021/03/13 06:00:42;;;;;;;0.50;0.10;;;7.80;99.90;;;;;;5036517;28;20731;-72
2021/03/13 06:03:12;;;;;;;0.80;0.20;;;7.90;99.90;;;;;;5035640;28;20442;-73
2021/03/13 06:05:39;;;;;;;0.40;0.10;;;7.90;99.90;;;;;;5036148;28;20441;-73
2021/03/13 06:08:07;;;;;;;0.90;0.10;;;7.80;99.90;;;;;;5035136;28;20617;-72
2021/03/13 06:10:34;;;;;;;0.50;0.17;;;7.90;99.90;;;;;;5035670;28;20419;-73
2021/03/13 06:13:01;;;;;;;1.08;0.10;;;7.80;99.90;;;;;;5035349;28;20739;-73
2021/03/13 06:15:29;;;;;;;0.40;0.10;;;7.80;99.90;;;;;;5035870;28;20427;-72
2021/03/13 06:17:57;;;;;;;0.30;0.20;;;7.80;99.90;;;;;;5035636;28;20457;-73
2021/03/13 06:20:35;;;;;;;1.20;0.10;;;7.80;99.90;;;;;;5036666;28;20435;-72
2021/03/13 06:23:03;;;;;;;0.50;0.20;;;7.80;99.90;;;;;;5036917;28;20452;-72
2021/03/13 06:25:30;;;;;;;0.40;0.20;;;7.90;99.90;;;;;;5036096;28;20704;-73
2021/03/13 06:28:12;;;;;;;0.40;0.20;;;8.00;99.90;;;;;;5035362;28;20743;-72
2021/03/13 06:30:41;;;;;;;0.30;0.10;;;7.90;99.90;;;;;;5041273;28;20421;-73
2021/03/13 06:33:23;;;;;;;1.42;0.20;;;8.10;99.90;;;;;;5055285;28;20440;-74
2021/03/13 06:35:51;;;;;;;0.50;0.30;;;8.10;99.90;;;;;;5055471;28;20715;-73
2021/03/13 06:38:20;;;;;;;1.30;0.10;;;8.20;99.90;;;;;;5054875;28;20436;-72
2021/03/13 06:40:47;;;;;;;0.40;0.20;;;8.30;99.90;;;;;;5055701;28;20921;-72
2021/03/13 06:43:27;;;;;;;1.10;0.20;;;8.40;99.90;;;;;;5055095;28;20429;-74
2021/03/13 06:46:02;;;;;;;0.70;0.17;;;8.40;99.90;;;;;;5055586;28;20414;-72
2021/03/13 06:48:37;;;;;;;0.80;0.20;;;8.60;99.90;;;;;;5055356;28;20433;-73
2021/03/13 06:51:21;;;;;;;0.50;0.20;;;8.70;99.90;;;;;;5054968;28;20421;-73
2021/03/13 06:54:00;;;;;;;1.00;0.20;;;8.70;99.90;;;;;;5054370;28;21113;-72
2021/03/13 06:56:28;;;;;;;0.40;0.10;;;8.70;99.90;;;;;;5055255;28;20841;-74
2021/03/13 06:58:56;;;;;;;0.40;0.10;;;8.70;99.90;;;;;;5055546;28;20487;-72
2021/03/13 07:01:27;;;;;;;0.80;0.15;;;8.70;99.90;;;;;;5054825;28;20476;-73
2021/03/13 07:03:54;;;;;;;0.60;0.20;;;8.70;99.90;;;;;;5055809;28;20551;-72
2021/03/13 07:06:21;;;;;;;1.00;0.20;;;8.60;99.90;;;;;;5054410;28;20492;-72
2021/03/13 07:08:49;;;;;;;0.60;0.20;;;8.70;99.90;;;;;;5054106;28;20425;-73
2021/03/13 07:11:18;;;;;;;1.10;0.20;;;8.70;99.90;;;;;;5053296;28;20429;-71
2021/03/13 07:13:46;;;;;;;0.80;0.20;;;8.80;99.90;;;;;;5053274;28;20429;-72
2021/03/13 07:16:32;;;;;;;0.40;0.10;;;8.90;99.90;;;;;;5054777;28;20436;-74
2021/03/13 07:19:01;;;;;;;0.30;0.20;;;8.90;99.90;;;;;;5056063;28;20528;-75
2021/03/13 07:21:29;;;;;;;0.60;0.20;;;9.10;99.90;;;;;;5054104;28;20491;-72
2021/03/13 07:24:02;;;;;;;0.40;0.20;;;9.00;99.90;;;;;;5051735;28;20475;-72
2021/03/13 07:26:35;;;;;;;0.70;0.10;;;9.00;99.90;;;;;;5051861;28;20433;-72
2021/03/13 07:29:02;;;;;;;0.40;0.20;;;9.00;99.90;;;;;;5054170;28;20409;-71
2021/03/13 07:31:36;;;;;;;0.55;0.20;;;9.10;99.90;;;;;;5054254;28;20983;-72
2021/03/13 07:34:06;;;;;;;0.80;0.15;;;9.10;99.90;;;;;;5053090;28;20890;-75
2021/03/13 07:36:37;;;;;;;0.60;0.10;;;9.20;99.90;;;;;;5053727;28;20802;-75
2021/03/13 07:39:12;;;;;;;0.60;0.10;;;9.20;99.90;;;;;;5054354;28;20426;-74
2021/03/13 07:41:41;;;;;;;0.50;0.20;;;9.30;99.90;;;;;;5053521;28;20520;-74
2021/03/13 07:44:09;;;;;;;0.40;0.20;;;9.40;99.90;;;;;;5054942;28;20425;-75
2021/03/13 07:46:40;;;;;;;0.50;0.10;;;9.40;99.90;;;;;;5054520;28;20428;-74
2021/03/13 07:49:06;;;;;;;0.60;0.20;;;9.40;99.90;;;;;;5054408;28;20425;-74
2021/03/13 07:51:33;;;;;;;0.40;0.10;;;9.50;99.90;;;;;;5054373;28;20432;-73
2021/03/13 07:54:02;;;;;;;0.30;0.10;;;9.40;99.90;;;;;;5053200;28;20437;-73
2021/03/13 07:56:31;;;;;;;0.50;0.20;;;9.60;99.90;;;;;;5053995;28;20724;-74
2021/03/13 07:58:57;;;;;;;1.40;0.20;;;9.70;99.90;;;;;;5052757;28;20441;-74
2021/03/13 08:01:56;;;;;;;1.10;0.10;;;9.80;99.90;;;;;;5052919;28;20456;-74
2021/03/13 08:04:53;;;;;;;0.82;0.20;;;9.70;99.90;;;;;;4992060;28;20429;-74
2021/03/13 08:07:23;;;;;;;0.40;0.20;;;9.80;99.90;;;;;;5051970;28;20884;-73
2021/03/13 08:09:50;;;;;;;0.30;0.10;;;9.70;99.90;;;;;;5055100;28;20421;-73
2021/03/13 08:12:37;;;;;;;0.73;0.10;;;9.60;99.90;;;;;;5057745;28;20565;-73
2021/03/13 08:15:10;;;;;;;0.60;0.10;;;9.60;99.90;;;;;;5058155;28;20424;-74
2021/03/13 08:17:42;;;;;;;0.40;0.10;;;9.60;99.90;;;;;;5057870;28;20455;-72
2021/03/13 08:20:10;;;;;;;1.00;0.10;;;9.70;99.90;;;;;;5057099;28;20433;-72
2021/03/13 08:22:37;;;;;;;0.57;0.10;;;9.70;99.90;;;;;;5055723;28;20445;-72
2021/03/13 08:25:25;;;;;;;0.40;0.10;;;9.60;99.90;;;;;;5057879;28;20432;-71
2021/03/13 08:27:53;;;;;;;2.30;0.10;;;9.60;99.90;;;;;;5058116;28;20433;-72
2021/03/13 08:30:21;;;;;;;1.70;0.10;;;9.60;99.90;;;;;;5057568;28;20516;-74
2021/03/13 08:32:59;;;;;;;0.43;0.10;;;9.60;99.90;;;;;;5055318;28;20847;-73
2021/03/13 08:35:52;;;;;;;0.70;0.10;;;9.60;99.90;;;;;;5054780;28;20447;-74
2021/03/13 08:38:40;;;;;;;0.60;0.10;;;9.60;99.90;;;;;;5057346;28;20444;-73
2021/03/13 08:41:07;;;;;;;0.43;0.10;;;9.60;99.90;;;;;;5057245;28;20509;-73
2021/03/13 08:43:39;;;;;;;0.43;0.10;;;9.60;99.90;;;;;;5058172;28;20437;-72
2021/03/13 08:46:26;;;;;;;0.32;0.10;;;9.70;99.90;;;;;;5057203;28;20751;-73
2021/03/13 08:49:00;;;;;;;0.40;0.10;;;10.00;99.90;;;;;;5056735;28;20432;-73
2021/03/13 08:51:27;;;;;;;1.50;0.20;;;10.20;99.90;;;;;;5049912;28;20430;-73
2021/03/13 08:53:54;;;;;;;1.25;0.57;;;10.30;99.90;;;;;;5045139;28;20825;-73
2021/03/13 08:56:41;;;;;;;0.50;0.30;;;10.40;99.90;;;;;;5036276;28;20561;-72
2021/03/13 08:59:13;;;;;;;0.50;0.10;;;10.50;99.90;;;;;;5041184;28;20512;-74
2021/03/13 09:01:41;;;;;;;2.00;0.10;;;10.40;99.90;;;;;;5053949;28;20432;-73
2021/03/13 09:04:09;;;;;;;0.38;0.10;;;10.50;99.90;;;;;;5056101;28;20478;-73
2021/03/13 09:06:39;;;;;;;0.30;0.10;;;10.50;99.90;;;;;;5056383;28;20425;-73
2021/03/13 09:09:16;;;;;;;0.47;0.10;;;10.60;99.90;;;;;;5056802;28;21138;-73
2021/03/13 09:11:43;;;;;;;0.40;0.10;;;10.60;99.90;;;;;;5056114;28;20550;-73
2021/03/13 09:14:12;;;;;;;0.30;0.10;;;10.60;99.90;;;;;;5055485;28;20857;-73
2021/03/13 09:16:42;;;;;;;0.80;0.20;;;10.60;99.90;;;;;;5054662;28;20421;-73
2021/03/13 09:19:16;;;;;;;0.60;0.20;;;10.60;99.90;;;;;;5055480;28;20413;-73
2021/03/13 09:21:48;;;;;;;0.30;0.10;;;10.70;99.90;;;;;;5054660;28;20435;-75
2021/03/13 09:24:18;;;;;;;0.60;0.10;;;10.80;99.90;;;;;;5056144;28;20421;-75
2021/03/13 09:26:49;;;;;;;1.00;0.10;;;10.90;99.90;;;;;;5054642;28;20487;-74
2021/03/13 09:29:18;;;;;;;0.40;0.10;;;10.90;99.90;;;;;;5055385;28;20422;-76
2021/03/13 09:31:44;;;;;;;0.52;0.10;;;10.90;99.90;;;;;;5053455;28;20426;-74
2021/03/13 09:34:19;;;;;;;0.40;0.10;;;10.90;99.90;;;;;;5053478;28;20421;-76
2021/03/13 09:36:46;;;;;;;0.40;0.10;;;11.00;99.90;;;;;;5053616;28;20856;-74
2021/03/13 09:39:20;;;;;;;0.30;0.10;;;11.10;99.90;;;;;;5056219;28;20728;-73
2021/03/13 09:42:21;;;;;;;0.70;0.10;;;11.00;99.90;;;;;;5055477;28;20781;-73
2021/03/13 09:44:49;;;;;;;0.40;0.10;;;11.00;99.90;;;;;;5048531;28;20429;-73
2021/03/13 09:47:19;;;;;;;0.50;0.20;;;11.20;99.90;;;;;;5052942;28;20443;-74
2021/03/13 09:49:47;;;;;;;0.30;0.10;;;11.20;99.90;;;;;;5044385;28;20425;-72
2021/03/13 09:52:15;;;;;;;0.80;0.10;;;11.10;99.90;;;;;;5053995;28;20874;-73
2021/03/13 09:54:43;;;;;;;0.40;0.20;;;11.20;99.90;;;;;;5053564;28;21031;-72
2021/03/13 09:57:14;;;;;;;0.30;0.10;;;11.30;99.90;;;;;;5053631;28;20491;-72
2021/03/13 09:59:42;;;;;;;0.40;0.13;;;11.60;99.90;;;;;;5053625;28;20744;-73
2021/03/13 10:02:10;;;;;;;0.30;0.10;;;11.70;99.90;;;;;;5053798;28;20437;-71
2021/03/13 10:04:37;;;;;;;0.40;0.10;;;11.50;99.90;;;;;;5053075;28;20421;-73
2021/03/13 10:07:05;;;;;;;0.70;0.10;;;11.50;99.90;;;;;;5053912;28;20440;-72
2021/03/13 10:09:31;;;;;;;0.40;0.20;;;11.40;99.90;;;;;;5054886;28;20526;-73
2021/03/13 10:12:04;;;;;;;0.30;0.10;;;11.20;99.90;;;;;;5054540;28;20429;-72
2021/03/13 10:14:39;;;;;;;1.00;0.10;;;11.20;99.90;;;;;;5045068;28;20449;-73
2021/03/13 10:17:05;;;;;;;0.30;0.10;;;11.20;99.90;;;;;;5052736;28;20449;-73
2021/03/13 10:19:39;;;;;;;0.52;0.10;;;11.10;99.90;;;;;;5054616;28;20425;-73
2021/03/13 10:22:21;;;;;;;0.90;0.10;;;11.00;99.90;;;;;;5055058;28;20449;-77
2021/03/13 10:24:50;;;;;;;0.30;0.13;;;11.10;99.90;;;;;;5047725;28;20443;-74
2021/03/13 10:27:28;;;;;;;0.30;0.10;;;11.20;99.90;;;;;;5047951;28;20796;-74
2021/03/13 10:29:58;;;;;;;0.30;0.10;;;11.10;99.90;;;;;;5052614;28;20436;-71
2021/03/13 10:32:29;;;;;;;0.80;0.20;;;11.20;99.90;;;;;;5052341;28;20499;-73
2021/03/13 10:35:22;;;;;;;0.30;0.10;;;11.30;99.90;;;;;;5070224;28;20430;-74
2021/03/13 10:37:52;;;;;;;0.68;0.20;;;11.30;99.90;;;;;;5062270;28;20428;-76
2021/03/13 10:40:40;;;;;;;0.30;0.20;;;11.30;99.90;;;;;;5049680;28;20444;-70
2021/03/13 10:43:23;;;;;;;1.50;0.20;;;11.20;99.90;;;;;;5049789;28;20437;-73
2021/03/13 10:46:22;;;;;;;0.38;0.10;;;11.20;99.90;;;;;;5048346;28;20853;-74
2021/03/13 10:49:01;;;;;;;0.30;0.10;;;11.20;99.90;;;;;;5050010;28;20806;-73
2021/03/13 10:51:35;;;;;;;0.40;0.10;;;11.20;99.90;;;;;;5053147;28;20987;-73
2021/03/13 10:54:24;;;;;;;0.40;0.10;;;11.10;99.90;;;;;;5160300;27;20366;-60
2021/03/13 10:56:51;;;;;;;0.70;0.20;;;11.20;99.90;;;;;;5157268;27;20423;-59
2021/03/13 10:59:31;;;;;;;0.30;0.10;;;11.30;99.90;;;;;;5172518;27;20409;-60
2021/03/13 11:01:57;;;;;;;0.40;0.10;;;11.20;99.90;;;;;;5155917;27;20506;-61
2021/03/13 11:04:29;;;;;;;0.30;0.10;;;11.20;99.90;;;;;;5163527;27;20426;-58
2021/03/13 11:06:59;;;;;;;0.30;0.10;;;11.10;99.90;;;;;;5169310;27;20420;-59
2021/03/13 11:09:26;;;;;;;0.60;0.20;;;11.20;99.90;;;;;;5167352;27;20419;-59
2021/03/13 11:12:03;;;;;;;0.40;0.10;;;11.10;99.90;;;;;;5159692;27;20428;-58
2021/03/13 11:14:30;;;;;;;0.30;0.10;;;11.30;99.90;;;;;;5164182;27;20475;-59
2021/03/13 11:16:59;;;;;;;1.00;0.10;;;11.20;99.90;;;;;;5171212;27;20428;-59
2021/03/13 11:19:27;;;;;;;0.40;0.10;;;11.30;99.90;;;;;;5167443;27;20899;-59
2021/03/13 11:21:53;;;;;;;0.40;0.10;;;11.30;99.90;;;;;;5167566;27;20513;-59
2021/03/13 11:24:22;;;;;;;0.30;0.10;;;11.40;99.90;;;;;;5171081;27;20539;-57
2021/03/13 11:26:53;;;;;;;0.32;0.10;;;11.40;99.90;;;;;;5170919;27;20827;-59
2021/03/13 11:29:20;;;;;;;0.30;0.10;;;11.40;99.90;;;;;;5164669;27;20469;-60
2021/03/13 11:31:50;;;;;;;0.30;0.10;;;11.40;99.90;;;;;;5170943;27;20998;-60
2021/03/13 11:34:16;;;;;;;0.30;0.10;;;11.60;99.90;;;;;;5171222;27;20423;-59
2021/03/13 11:36:43;;;;;;;0.40;0.10;;;11.50;99.90;;;;;;5171771;27;20869;-59
2021/03/13 11:39:10;;;;;;;0.35;0.20;;;11.60;99.90;;;;;;5170336;27;20784;-59
2021/03/13 11:41:40;;;;;;;0.45;0.10;;;11.50;99.90;;;;;;5162581;27;20496;-61
2021/03/13 11:44:16;;;;;;;0.40;0.10;;;11.60;99.90;;;;;;5170187;27;20430;-60
2021/03/13 11:46:43;;;;;;;1.30;0.20;;;11.70;99.90;;;;;;5169474;27;20416;-60
2021/03/13 11:49:13;;;;;;;1.00;0.13;;;11.70;99.90;;;;;;5168224;27;20436;-60
2021/03/13 11:51:40;;;;;;;0.40;0.20;;;11.80;99.90;;;;;;5169311;27;20435;-60
2021/03/13 11:54:08;;;;;;;0.30;0.10;;;11.80;99.90;;;;;;5171223;27;20423;-60
2021/03/13 11:56:45;;;;;;;0.40;0.10;;;11.80;99.90;;;;;;5168663;27;20452;-61
2021/03/13 11:59:18;;;;;;;0.30;0.10;;;11.90;99.90;;;;;;5163149;27;20519;-61
2021/03/13 12:01:45;;;;;;;0.70;0.10;;;12.00;99.90;;;;;;5164130;27;20428;-61
2021/03/13 12:04:16;;;;;;;0.30;0.10;;;11.90;99.90;;;;;;5155672;27;20519;-62
2021/03/13 12:06:44;;;;;;;1.20;0.20;;;11.90;99.90;;;;;;5143971;27;20424;-61
2021/03/13 12:09:16;;;;;;;0.30;0.10;;;11.80;99.90;;;;;;5152636;27;20652;-63
2021/03/13 12:11:43;;;;;;;0.30;0.10;;;11.80;99.90;;;;;;5152601;27;20428;-61
2021/03/13 12:14:12;;;;;;;0.50;0.10;;;11.70;99.90;;;;;;5146982;27;20481;-59
2021/03/13 12:16:47;;;;;;;0.70;0.10;;;11.60;99.90;;;;;;5152223;27;20428;-60
2021/03/13 12:19:13;;;;;;;0.30;0.10;;;11.60;99.90;;;;;;5154534;27;20477;-61
2021/03/13 12:21:45;;;;;;;1.05;0.20;;;11.60;99.90;;;;;;5155289;27;20417;-61
2021/03/13 12:24:14;;;;;;;0.30;0.10;;;11.70;99.90;;;;;;5155959;27;20493;-62
2021/03/13 12:26:43;;;;;;;2.20;0.20;;;11.80;99.90;;;;;;5153911;27;21703;-60
2021/03/13 12:29:12;;;;;;;0.30;0.10;;;11.40;99.90;;;;;;5153077;27;20461;-61
2021/03/13 12:31:40;;;;;;;1.10;0.10;;;11.30;99.90;;;;;;5151888;27;20534;-59
2021/03/13 12:34:07;;;;;;;0.30;0.10;;;11.10;99.90;;;;;;5134467;27;20429;-62
2021/03/13 12:36:34;;;;;;;0.30;0.10;;;11.10;99.90;;;;;;5134385;27;20830;-62
2021/03/13 12:39:04;;;;;;;0.30;0.10;;;11.20;99.90;;;;;;5133513;27;20426;-63
2021/03/13 12:41:31;;;;;;;0.30;0.10;;;11.20;99.90;;;;;;5140732;27;20430;-63
2021/03/13 12:43:58;;;;;;;0.30;0.10;;;11.10;99.90;;;;;;5145990;27;20444;-62
2021/03/13 12:46:27;;;;;;;0.40;0.10;;;11.30;99.90;;;;;;5151860;27;20432;-61
2021/03/13 12:49:17;;;;;;;0.30;0.10;;;11.50;99.90;;;;;;5151791;27;20743;-61
2021/03/13 12:51:52;;;;;;;1.10;0.10;;;11.50;99.90;;;;;;5154741;27;20970;-61
2021/03/13 12:54:18;;;;;;;0.30;0.10;;;11.20;99.90;;;;;;5137449;27;20966;-61
2021/03/13 12:56:45;;;;;;;0.40;0.10;;;11.10;99.90;;;;;;5133982;27;20414;-60
2021/03/13 12:59:11;;;;;;;0.40;0.10;;;11.10;99.90;;;;;;5134688;27;20510;-61
2021/03/13 13:01:38;;;;;;;0.30;0.10;;;10.90;99.90;;;;;;5151999;27;20895;-61
2021/03/13 13:04:10;;;;;;;0.50;0.10;;;10.80;99.90;;;;;;5152945;27;20736;-61
2021/03/13 13:06:39;;;;;;;0.30;0.10;;;10.70;99.90;;;;;;5154228;27;20473;-60
2021/03/13 13:09:06;;;;;;;0.30;0.20;;;10.60;99.90;;;;;;5156138;27;20504;-58